Time;durP1;ratioP1;P1;durP2;ratioP2;P2;SDS_P1;SDS_P2;PMS_P1;PMS_P2;Temp;Humidity;BMP_temperature;BMP_pressure;BME280_temperature;BME280_humidity;BME280_pressure;Samples;Min_cycle;Max_cycle;Signal;HPM_P1;HPM_P2
2022/06/25 00:01:26;;;;;;;2.75;2.35;;;20.10;82.50;;;;;;1948157;73;21035;-61
2022/06/25 00:03:55;;;;;;;2.98;2.33;;;20.00;82.90;;;;;;1948198;74;21023;-61
2022/06/25 00:06:25;;;;;;;3.22;2.20;;;20.00;83.40;;;;;;1948139;74;21119;-61
2022/06/25 00:08:55;;;;;;;3.22;2.37;;;20.00;84.10;;;;;;1948079;72;21019;-61
2022/06/25 00:14:13;;;;;;;3.72;2.80;;;19.90;83.30;;;;;;1948271;74;21089;-61
2022/06/25 00:16:42;;;;;;;3.52;2.33;;;19.80;83.30;;;;;;1948250;74;21051;-61
2022/06/25 00:19:11;;;;;;;3.65;2.60;;;19.70;84.10;;;;;;1948174;74;21089;-61
2022/06/25 00:21:40;;;;;;;3.00;2.70;;;19.70;83.60;;;;;;1948116;74;21441;-61
2022/06/25 00:24:11;;;;;;;6.08;3.42;;;19.70;83.90;;;;;;1948163;74;20991;-61
2022/06/25 00:26:41;;;;;;;4.53;2.87;;;19.60;84.10;;;;;;1948248;74;21457;-61
2022/06/25 00:29:11;;;;;;;3.47;2.80;;;19.50;84.50;;;;;;1948065;73;21011;-61
2022/06/25 00:31:41;;;;;;;5.12;2.85;;;19.50;84.20;;;;;;1948156;74;21022;-61
2022/06/25 00:34:10;;;;;;;4.00;3.30;;;19.50;84.30;;;;;;1948162;74;21109;-61
2022/06/25 00:36:41;;;;;;;5.47;2.87;;;19.40;84.20;;;;;;1948200;74;21014;-61
2022/06/25 00:39:10;;;;;;;2.70;2.35;;;19.40;84.40;;;;;;1948257;74;21023;-61
2022/06/25 00:41:39;;;;;;;4.65;2.33;;;19.40;84.50;;;;;;1948254;74;21022;-61
2022/06/25 00:44:09;;;;;;;3.22;2.50;;;19.40;84.80;;;;;;1948157;74;21031;-61
2022/06/25 00:46:38;;;;;;;2.77;2.17;;;19.40;84.80;;;;;;1948003;73;21026;-61
2022/06/25 00:49:08;;;;;;;3.40;2.60;;;19.40;84.80;;;;;;1948109;73;21022;-61
2022/06/25 00:51:40;;;;;;;5.50;3.55;;;19.40;84.90;;;;;;1948058;74;21018;-61
2022/06/25 00:54:10;;;;;;;3.77;2.83;;;19.40;85.00;;;;;;1948208;74;21038;-62
2022/06/25 00:56:42;;;;;;;4.22;2.55;;;19.40;84.90;;;;;;1948094;74;20998;-62
2022/06/25 00:59:12;;;;;;;2.72;2.45;;;19.40;85.10;;;;;;1948274;73;21081;-62
2022/06/25 01:01:42;;;;;;;3.75;2.33;;;19.40;85.20;;;;;;1949095;73;21038;-62
2022/06/25 01:04:11;;;;;;;3.30;3.00;;;19.40;85.40;;;;;;1926883;74;21030;-62
2022/06/25 01:06:40;;;;;;;8.58;2.80;;;19.50;85.30;;;;;;1927026;73;21090;-62
2022/06/25 01:09:10;;;;;;;6.87;2.65;;;19.50;85.10;;;;;;1926957;74;21085;-62
2022/06/25 01:11:39;;;;;;;2.65;2.42;;;19.50;85.00;;;;;;1926891;74;21140;-62
2022/06/25 01:14:10;;;;;;;4.72;2.75;;;19.60;85.10;;;;;;1927005;74;21097;-62
2022/06/25 01:16:39;;;;;;;4.53;3.17;;;19.60;84.80;;;;;;1926999;74;21031;-62
2022/06/25 01:19:11;;;;;;;6.20;3.20;;;19.50;84.80;;;;;;1926920;74;21031;-62
2022/06/25 01:21:42;;;;;;;4.03;3.42;;;19.50;85.00;;;;;;1926936;74;21048;-62
2022/06/25 01:24:15;;;;;;;4.17;3.75;;;19.50;85.10;;;;;;1927023;74;21036;-62
2022/06/25 01:26:45;;;;;;;5.30;3.25;;;19.50;85.20;;;;;;1926986;74;21137;-62
2022/06/25 01:29:14;;;;;;;4.87;3.70;;;19.50;85.30;;;;;;1926892;74;21075;-62
2022/06/25 01:31:43;;;;;;;4.67;4.10;;;19.50;85.40;;;;;;1927035;73;21036;-62
2022/06/25 01:34:13;;;;;;;5.50;3.50;;;19.60;85.30;;;;;;1926966;74;21031;-62
2022/06/25 01:36:42;;;;;;;5.25;3.52;;;19.50;85.10;;;;;;1926861;74;21007;-62
2022/06/25 01:39:11;;;;;;;4.62;3.98;;;19.50;85.40;;;;;;1927004;74;21031;-62
2022/06/25 01:41:41;;;;;;;4.47;3.37;;;19.50;85.40;;;;;;1926967;74;21044;-62
2022/06/25 01:44:11;;;;;;;6.58;4.05;;;19.60;85.70;;;;;;1896053;74;21078;-62
2022/06/25 01:46:40;;;;;;;5.67;4.35;;;19.60;85.70;;;;;;1926969;74;21426;-62
2022/06/25 01:49:11;;;;;;;5.10;4.28;;;19.50;85.50;;;;;;1926379;74;21112;-62
2022/06/25 01:51:41;;;;;;;5.42;4.08;;;19.60;85.70;;;;;;1926453;74;21521;-62
2022/06/25 01:54:11;;;;;;;15.80;5.03;;;19.60;85.60;;;;;;1926978;74;21052;-62
2022/06/25 01:56:40;;;;;;;5.47;4.72;;;19.60;85.70;;;;;;1926989;74;21439;-62
2022/06/25 01:59:10;;;;;;;5.70;4.25;;;19.60;85.50;;;;;;1926964;74;21035;-62
2022/06/25 02:01:40;;;;;;;5.05;4.65;;;19.50;85.40;;;;;;1931566;74;21466;-62
2022/06/25 02:04:09;;;;;;;10.20;5.92;;;19.50;85.50;;;;;;1932115;74;21023;-62
2022/06/25 02:06:38;;;;;;;5.25;4.45;;;19.40;85.50;;;;;;1932035;74;21031;-62
2022/06/25 02:09:08;;;;;;;8.08;4.15;;;19.30;85.70;;;;;;1932072;74;21003;-62
2022/06/25 02:11:37;;;;;;;6.80;4.30;;;19.30;85.80;;;;;;1931992;74;21028;-62
2022/06/25 02:14:07;;;;;;;4.87;3.80;;;19.20;86.10;;;;;;1931996;74;21020;-62
2022/06/25 02:16:36;;;;;;;5.20;3.62;;;19.20;86.00;;;;;;1932022;74;21044;-62
2022/06/25 02:19:06;;;;;;;8.75;3.60;;;19.20;86.10;;;;;;1932068;74;21127;-62
2022/06/25 02:21:35;;;;;;;4.20;3.70;;;19.10;86.40;;;;;;1932124;74;21079;-62
2022/06/25 02:24:05;;;;;;;4.78;3.62;;;19.10;86.40;;;;;;1931997;74;21071;-62
2022/06/25 02:26:35;;;;;;;5.30;3.77;;;19.00;86.30;;;;;;1932062;74;21536;-62
2022/06/25 02:29:04;;;;;;;5.97;3.55;;;19.00;87.10;;;;;;1932152;74;21035;-62
2022/06/25 02:31:34;;;;;;;8.73;3.50;;;19.00;86.50;;;;;;1932056;74;21105;-62
2022/06/25 02:34:03;;;;;;;5.65;3.35;;;18.90;86.60;;;;;;1932125;74;21031;-63
2022/06/25 02:36:32;;;;;;;3.22;2.70;;;18.90;86.70;;;;;;1932007;74;21079;-63
2022/06/25 02:39:03;;;;;;;7.15;2.50;;;18.90;86.70;;;;;;1931907;73;21467;-62
2022/06/25 02:41:33;;;;;;;4.08;2.25;;;19.00;86.70;;;;;;1932014;74;21047;-63
2022/06/25 02:44:02;;;;;;;4.15;2.42;;;19.00;86.60;;;;;;1932034;74;21101;-63
2022/06/25 02:46:33;;;;;;;4.72;4.08;;;19.00;86.40;;;;;;1929823;74;21145;-63
2022/06/25 02:49:04;;;;;;;4.65;3.33;;;19.00;86.30;;;;;;1932142;74;21062;-63
2022/06/25 02:51:33;;;;;;;4.10;2.67;;;19.10;86.40;;;;;;1931982;74;21070;-63
2022/06/25 02:54:03;;;;;;;4.10;2.83;;;19.10;86.50;;;;;;1931998;74;21109;-63
2022/06/25 02:59:21;;;;;;;3.27;2.98;;;19.30;86.30;;;;;;1932091;74;21125;-63
2022/06/25 03:01:55;;;;;;;4.95;2.80;;;19.40;86.30;;;;;;1928320;74;21551;-63
2022/06/25 03:04:25;;;;;;;4.45;3.08;;;19.40;86.20;;;;;;1926801;74;21047;-63
2022/06/25 03:06:56;;;;;;;4.40;2.42;;;19.50;85.80;;;;;;1926918;74;21083;-63
2022/06/25 03:09:25;;;;;;;2.90;2.15;;;19.50;85.70;;;;;;1926807;74;21095;-62
2022/06/25 03:11:56;;;;;;;5.70;2.70;;;19.50;85.60;;;;;;1926963;74;21137;-62
2022/06/25 03:14:25;;;;;;;6.12;2.98;;;19.60;85.50;;;;;;1926889;74;21079;-62
2022/06/25 03:16:55;;;;;;;3.87;2.50;;;19.60;85.50;;;;;;1927076;74;21133;-62
2022/06/25 03:19:26;;;;;;;4.85;2.12;;;19.60;85.40;;;;;;1926982;74;21059;-62
2022/06/25 03:22:06;;;;;;;5.10;4.10;;;19.60;85.50;;;;;;1924856;74;21046;-62
2022/06/25 03:24:36;;;;;;;11.55;6.85;;;19.70;85.50;;;;;;1926926;74;21063;-62
2022/06/25 03:27:06;;;;;;;4.72;3.50;;;19.70;85.30;;;;;;1927054;74;21200;-62
2022/06/25 03:29:36;;;;;;;9.50;3.45;;;19.80;85.30;;;;;;1926972;74;21079;-62
2022/06/25 03:32:07;;;;;;;3.33;2.45;;;19.90;85.30;;;;;;1927029;74;21106;-62
2022/06/25 03:34:38;;;;;;;4.03;2.67;;;19.90;85.40;;;;;;1915612;74;21105;-62
2022/06/25 03:37:08;;;;;;;3.60;2.70;;;20.00;85.10;;;;;;1927087;74;21035;-61
2022/06/25 03:39:38;;;;;;;3.50;2.50;;;20.10;85.10;;;;;;1927124;74;20999;-62
2022/06/25 03:42:07;;;;;;;6.20;3.15;;;20.20;84.90;;;;;;1927093;74;21438;-62
2022/06/25 03:44:38;;;;;;;4.33;2.60;;;20.30;84.80;;;;;;1926151;74;21566;-62
2022/06/25 03:47:15;;;;;;;3.37;2.85;;;20.40;84.30;;;;;;1926244;74;21108;-62
2022/06/25 03:49:45;;;;;;;3.45;2.70;;;20.50;84.00;;;;;;1926849;74;21007;-61
2022/06/25 03:52:16;;;;;;;10.18;3.00;;;20.60;83.80;;;;;;1926645;74;21105;-61
2022/06/25 03:54:45;;;;;;;3.00;2.40;;;20.80;83.60;;;;;;1926943;74;21083;-61
2022/06/25 03:57:15;;;;;;;3.42;2.40;;;20.80;83.40;;;;;;1926997;74;21086;-61
2022/06/25 03:59:46;;;;;;;2.87;2.65;;;20.90;82.70;;;;;;1922659;74;21090;-61
2022/06/25 04:02:19;;;;;;;3.50;3.20;;;20.90;82.70;;;;;;1906259;73;21073;-61
2022/06/25 04:04:51;;;;;;;2.40;2.20;;;21.00;82.80;;;;;;1856519;77;21043;-61
2022/06/25 04:07:20;;;;;;;2.80;2.35;;;21.10;82.40;;;;;;1890042;76;21034;-61
2022/06/25 04:09:50;;;;;;;6.28;2.52;;;21.20;82.30;;;;;;1860798;77;21027;-60
2022/06/25 04:12:20;;;;;;;2.47;2.15;;;21.20;81.60;;;;;;1890119;76;21088;-60
2022/06/25 04:14:50;;;;;;;4.95;2.30;;;21.30;81.30;;;;;;1860767;77;21024;-60
2022/06/25 04:17:20;;;;;;;2.90;2.17;;;21.30;81.20;;;;;;1889992;76;21006;-60
2022/06/25 04:19:50;;;;;;;5.00;2.33;;;21.30;81.00;;;;;;1860773;77;21029;-60
2022/06/25 04:22:20;;;;;;;6.05;3.17;;;21.30;80.50;;;;;;1890005;76;21026;-60
2022/06/25 04:24:50;;;;;;;4.33;2.50;;;21.40;81.00;;;;;;1860599;77;21090;-60
2022/06/25 04:30:09;;;;;;;2.67;1.80;;;21.50;80.10;;;;;;1860699;77;21053;-60
2022/06/25 04:32:39;;;;;;;3.12;2.20;;;21.60;80.10;;;;;;1865255;76;21049;-61
2022/06/25 04:35:19;;;;;;;2.83;2.20;;;21.70;79.80;;;;;;1860683;77;21046;-60
2022/06/25 04:37:50;;;;;;;3.55;2.02;;;21.70;79.10;;;;;;1889965;76;21062;-60
2022/06/25 04:40:21;;;;;;;2.85;2.05;;;21.70;78.80;;;;;;1860825;77;21007;-61
2022/06/25 04:42:52;;;;;;;4.87;2.22;;;21.70;78.60;;;;;;1890194;76;21026;-60
2022/06/25 04:45:21;;;;;;;2.30;2.10;;;21.70;78.10;;;;;;1860677;77;21092;-61
2022/06/25 04:48:02;;;;;;;1.98;1.77;;;21.70;78.40;;;;;;1886761;75;21121;-61
2022/06/25 04:50:36;;;;;;;1.70;1.60;;;21.70;78.30;;;;;;1856620;77;21060;-61
2022/06/25 04:53:06;;;;;;;4.10;1.92;;;21.70;77.70;;;;;;1890072;76;21025;-61
2022/06/25 04:55:35;;;;;;;4.95;2.02;;;21.80;77.20;;;;;;1894323;76;21071;-61
2022/06/25 04:58:05;;;;;;;2.62;1.75;;;21.90;77.50;;;;;;1860738;77;21144;-61
2022/06/25 05:00:41;;;;;;;2.17;1.98;;;22.10;76.90;;;;;;1886004;76;21062;-61
2022/06/25 05:03:12;;;;;;;3.08;1.77;;;22.10;76.30;;;;;;1860854;77;21125;-61
2022/06/25 05:05:43;;;;;;;2.20;2.00;;;22.10;76.40;;;;;;1887335;76;21102;-61
2022/06/25 05:08:13;;;;;;;2.83;2.02;;;22.10;77.10;;;;;;1860831;77;21054;-62
2022/06/25 05:10:43;;;;;;;2.87;1.90;;;22.20;77.30;;;;;;1890091;76;21010;-62
2022/06/25 05:13:13;;;;;;;3.67;2.00;;;22.30;76.90;;;;;;1860635;77;21009;-62
2022/06/25 05:15:44;;;;;;;4.80;2.35;;;22.40;76.40;;;;;;1889730;75;21115;-61
2022/06/25 05:18:14;;;;;;;7.03;2.20;;;22.50;76.20;;;;;;1860767;77;21103;-61
2022/06/25 05:20:45;;;;;;;2.65;1.82;;;22.60;75.80;;;;;;1889898;76;21045;-62
2022/06/25 05:23:15;;;;;;;5.40;1.90;;;22.70;75.80;;;;;;1860711;77;21092;-62
2022/06/25 05:25:46;;;;;;;2.20;1.95;;;22.70;75.40;;;;;;1889818;76;21037;-62
2022/06/25 05:28:17;;;;;;;3.30;1.80;;;22.60;75.20;;;;;;1860597;77;21119;-62
2022/06/25 05:30:46;;;;;;;4.45;2.35;;;22.60;75.20;;;;;;1889651;76;21065;-62
2022/06/25 05:33:16;;;;;;;4.67;2.20;;;22.50;75.10;;;;;;1860329;77;21080;-62
2022/06/25 05:35:45;;;;;;;3.75;2.30;;;22.40;74.70;;;;;;1889863;76;21050;-62
2022/06/25 05:38:15;;;;;;;4.50;2.75;;;22.40;74.40;;;;;;1860498;77;21099;-62
2022/06/25 05:40:44;;;;;;;3.02;2.62;;;22.30;74.50;;;;;;1889933;76;21104;-62
2022/06/25 05:43:14;;;;;;;1.47;1.37;;;22.30;74.50;;;;;;1860730;77;21099;-62
2022/06/25 05:45:43;;;;;;;4.17;2.10;;;22.20;74.20;;;;;;1889836;76;21034;-62
2022/06/25 05:48:14;;;;;;;1.85;1.70;;;22.20;73.90;;;;;;1860748;77;21028;-62
2022/06/25 05:50:46;;;;;;;2.62;1.92;;;22.20;74.00;;;;;;1883543;75;21077;-62
2022/06/25 05:53:16;;;;;;;6.53;2.17;;;22.10;74.20;;;;;;1950858;73;21068;-62
2022/06/25 05:55:45;;;;;;;6.60;2.35;;;22.20;74.50;;;;;;1950864;73;21070;-62
2022/06/25 05:58:14;;;;;;;2.75;2.30;;;22.30;74.90;;;;;;1950902;73;21046;-62
2022/06/25 06:00:44;;;;;;;2.75;2.20;;;22.30;74.80;;;;;;1950925;73;21070;-62
2022/06/25 06:03:14;;;;;;;2.90;2.10;;;22.30;74.70;;;;;;1950830;73;21127;-62
2022/06/25 06:05:43;;;;;;;4.12;2.15;;;22.30;74.50;;;;;;1950724;73;21124;-62
2022/06/25 06:08:13;;;;;;;3.80;2.17;;;22.30;74.70;;;;;;1950883;73;21434;-62
2022/06/25 06:10:42;;;;;;;2.47;1.90;;;22.30;74.20;;;;;;1950761;73;21100;-62
2022/06/25 06:13:11;;;;;;;2.15;1.92;;;22.30;74.50;;;;;;1950841;73;21100;-62
2022/06/25 06:15:41;;;;;;;2.22;1.60;;;22.40;74.60;;;;;;1950722;73;20995;-62
2022/06/25 06:18:10;;;;;;;2.75;1.90;;;22.40;73.80;;;;;;1950790;73;21015;-62
2022/06/25 06:20:40;;;;;;;2.35;1.87;;;22.50;73.50;;;;;;1950921;73;20994;-61
2022/06/25 06:23:09;;;;;;;5.80;1.98;;;22.60;72.90;;;;;;1950995;73;21027;-61
2022/06/25 06:25:39;;;;;;;3.05;1.60;;;22.70;71.80;;;;;;1950894;73;21072;-61
2022/06/25 06:28:09;;;;;;;2.55;1.90;;;22.80;71.70;;;;;;1950881;73;21022;-61
2022/06/25 06:30:38;;;;;;;1.80;1.70;;;22.80;71.90;;;;;;1950788;73;21084;-62
2022/06/25 06:33:08;;;;;;;2.87;1.87;;;22.70;71.70;;;;;;1950856;73;21007;-62
2022/06/25 06:35:37;;;;;;;3.75;2.00;;;22.80;72.10;;;;;;1950858;73;21006;-61
2022/06/25 06:38:07;;;;;;;4.90;2.15;;;22.80;72.10;;;;;;1950840;73;20998;-62
2022/06/25 06:40:36;;;;;;;3.67;1.85;;;22.80;72.20;;;;;;1950754;73;21014;-62
2022/06/25 06:43:06;;;;;;;2.33;2.12;;;22.90;72.00;;;;;;1950915;73;21006;-62
2022/06/25 06:45:35;;;;;;;3.12;2.27;;;23.00;72.00;;;;;;1950906;73;21066;-61
2022/06/25 06:48:06;;;;;;;3.62;2.10;;;23.10;71.60;;;;;;1950921;73;21316;-61
2022/06/25 06:50:36;;;;;;;4.28;2.40;;;23.20;71.50;;;;;;1957469;73;21167;-62
2022/06/25 06:53:05;;;;;;;3.47;3.17;;;23.40;71.30;;;;;;1961174;73;21406;-61
2022/06/25 06:55:34;;;;;;;2.17;1.80;;;23.60;70.60;;;;;;1961129;73;21092;-61
2022/06/25 06:58:04;;;;;;;2.25;2.02;;;23.80;69.70;;;;;;1961186;73;21036;-61
2022/06/25 07:00:33;;;;;;;4.80;1.80;;;23.90;69.30;;;;;;1961105;73;21061;-61
2022/06/25 07:03:02;;;;;;;2.52;1.87;;;24.00;68.60;;;;;;1961275;73;20994;-61
2022/06/25 07:05:32;;;;;;;4.10;1.70;;;24.00;68.80;;;;;;1961072;73;21027;-61
2022/06/25 07:08:01;;;;;;;3.10;2.20;;;24.10;69.00;;;;;;1961197;73;21080;-61
2022/06/25 07:10:31;;;;;;;2.25;1.70;;;24.30;68.70;;;;;;1961067;73;21014;-61
2022/06/25 07:13:00;;;;;;;2.47;1.62;;;24.40;68.10;;;;;;1961036;73;21018;-61
2022/06/25 07:15:30;;;;;;;3.75;2.00;;;24.50;66.90;;;;;;1961052;73;21015;-61
2022/06/25 07:17:59;;;;;;;2.75;1.80;;;24.60;67.10;;;;;;1961296;73;21018;-61
2022/06/25 07:20:28;;;;;;;2.85;1.60;;;24.70;66.90;;;;;;1961197;73;21543;-61
2022/06/25 07:22:57;;;;;;;2.72;1.85;;;24.80;65.90;;;;;;1961207;73;21440;-61
2022/06/25 07:25:27;;;;;;;2.00;1.75;;;24.90;65.60;;;;;;1961125;73;21018;-61
2022/06/25 07:27:56;;;;;;;2.77;1.57;;;24.90;65.10;;;;;;1961108;73;21050;-61
2022/06/25 07:30:26;;;;;;;4.10;1.77;;;25.00;65.00;;;;;;1961113;73;21090;-61
2022/06/25 07:32:55;;;;;;;4.35;2.80;;;24.90;64.20;;;;;;1960995;73;21296;-61
2022/06/25 07:35:25;;;;;;;3.75;1.72;;;24.80;64.00;;;;;;1960958;73;20996;-61
2022/06/25 07:37:55;;;;;;;5.42;2.00;;;24.90;63.90;;;;;;1960950;73;21147;-61
2022/06/25 07:40:25;;;;;;;1.92;1.72;;;25.00;64.00;;;;;;1961008;73;21068;-61
2022/06/25 07:42:54;;;;;;;8.45;1.87;;;25.10;62.50;;;;;;1961170;73;21010;-61
2022/06/25 07:45:24;;;;;;;2.25;1.37;;;25.10;62.20;;;;;;1961086;73;21006;-61
2022/06/25 07:47:53;;;;;;;4.67;1.60;;;25.20;61.80;;;;;;1961208;73;21019;-61
2022/06/25 07:53:10;;;;;;;2.22;1.37;;;25.40;59.80;;;;;;1938161;74;21097;-60
2022/06/25 07:55:40;;;;;;;2.27;1.42;;;25.50;59.30;;;;;;1937962;73;20991;-60
2022/06/25 07:58:10;;;;;;;4.70;1.20;;;25.60;59.20;;;;;;1937990;74;21073;-61
2022/06/25 08:00:39;;;;;;;4.97;1.70;;;25.70;59.10;;;;;;1938084;74;20995;-61
2022/06/25 08:03:09;;;;;;;2.92;1.60;;;25.70;58.80;;;;;;1938016;74;21015;-60
2022/06/25 08:05:38;;;;;;;1.70;1.60;;;25.70;58.50;;;;;;1938092;74;21031;-61
2022/06/25 08:08:08;;;;;;;5.03;2.62;;;25.80;58.30;;;;;;1938079;74;21011;-61
2022/06/25 08:10:37;;;;;;;1.92;1.72;;;25.70;57.70;;;;;;1938021;74;21023;-61
2022/06/25 08:13:07;;;;;;;1.62;1.50;;;25.70;57.60;;;;;;1938106;74;21075;-60
2022/06/25 08:15:36;;;;;;;1.40;1.30;;;25.80;56.70;;;;;;1938009;74;21063;-61
2022/06/25 08:18:05;;;;;;;4.15;1.60;;;25.80;57.40;;;;;;1938148;74;21015;-61
2022/06/25 08:20:35;;;;;;;1.87;1.40;;;25.90;57.20;;;;;;1938031;73;20996;-61
2022/06/25 08:23:04;;;;;;;2.17;1.80;;;26.00;56.80;;;;;;1938103;74;21097;-61
2022/06/25 08:25:34;;;;;;;2.83;1.40;;;26.00;56.80;;;;;;1937926;73;20991;-61
2022/06/25 08:28:03;;;;;;;2.52;1.52;;;26.00;56.60;;;;;;1938008;74;21085;-61
2022/06/25 08:30:32;;;;;;;1.67;1.40;;;26.10;56.00;;;;;;1937896;74;21083;-61
2022/06/25 08:33:02;;;;;;;2.75;1.42;;;26.10;56.50;;;;;;1938023;74;21413;-60
2022/06/25 08:35:31;;;;;;;1.92;1.40;;;26.20;56.40;;;;;;1938056;74;21092;-61
2022/06/25 08:38:02;;;;;;;4.28;1.92;;;26.20;55.80;;;;;;1937827;74;21011;-61
2022/06/25 08:40:31;;;;;;;9.18;7.87;;;26.20;55.80;;;;;;1937899;74;21031;-60
2022/06/25 08:43:02;;;;;;;4.67;1.95;;;26.40;55.40;;;;;;1938008;74;21011;-60
2022/06/25 08:45:32;;;;;;;3.40;1.98;;;26.40;55.30;;;;;;1937976;74;21046;-61
2022/06/25 08:48:04;;;;;;;5.17;2.25;;;26.50;54.90;;;;;;1938055;74;21086;-61
2022/06/25 08:50:33;;;;;;;1.60;1.50;;;26.50;55.20;;;;;;1937551;74;21062;-60
2022/06/25 08:53:03;;;;;;;2.50;1.52;;;26.50;55.20;;;;;;1938672;73;21019;-60
2022/06/25 08:55:34;;;;;;;2.50;1.50;;;26.50;55.20;;;;;;1938761;74;21051;-60
2022/06/25 08:58:05;;;;;;;1.50;1.32;;;26.60;55.00;;;;;;1938763;73;21003;-60
2022/06/25 09:00:37;;;;;;;2.70;1.42;;;26.60;54.50;;;;;;1938773;73;20999;-61
2022/06/25 09:03:08;;;;;;;1.60;1.50;;;26.60;54.60;;;;;;1938830;74;21172;-61
2022/06/25 09:05:44;;;;;;;2.12;1.70;;;26.60;55.20;;;;;;1938754;74;21197;-61
2022/06/25 09:08:15;;;;;;;3.67;1.80;;;26.50;55.30;;;;;;1937258;73;21031;-61
2022/06/25 09:10:46;;;;;;;1.90;1.80;;;26.50;55.70;;;;;;1938727;73;21019;-60
2022/06/25 09:13:15;;;;;;;2.45;1.55;;;26.60;55.60;;;;;;1937099;73;21031;-60
2022/06/25 09:15:46;;;;;;;4.03;1.75;;;26.60;55.00;;;;;;1938610;73;21117;-61
2022/06/25 09:18:17;;;;;;;2.87;1.70;;;26.50;55.40;;;;;;1938610;74;21003;-61
2022/06/25 09:21:08;;;;;;;2.17;1.87;;;26.50;55.80;;;;;;1938599;74;21081;-61
2022/06/25 09:23:40;;;;;;;5.83;2.70;;;26.50;55.80;;;;;;1938617;74;21055;-61
2022/06/25 09:26:11;;;;;;;3.62;1.90;;;26.60;56.50;;;;;;1931903;74;21031;-61
2022/06/25 09:28:48;;;;;;;4.28;2.35;;;26.70;56.10;;;;;;1938571;73;21027;-61
2022/06/25 09:31:15;;;;;;;4.70;2.47;;;26.80;55.80;;;;;;1936906;73;21051;-61
2022/06/25 09:33:46;;;;;;;4.53;2.58;;;26.80;55.40;;;;;;1934176;74;21031;-61
2022/06/25 09:36:15;;;;;;;7.60;4.97;;;26.80;55.60;;;;;;1938657;73;21478;-61
2022/06/25 09:38:49;;;;;;;7.47;2.75;;;26.80;55.20;;;;;;1938571;74;21031;-61
2022/06/25 09:41:19;;;;;;;1.98;1.67;;;26.80;56.10;;;;;;1937917;73;21039;-61
2022/06/25 09:43:48;;;;;;;6.10;2.05;;;26.70;55.00;;;;;;1938695;73;21102;-61
2022/06/25 09:46:18;;;;;;;2.40;1.65;;;26.70;54.20;;;;;;1938589;74;21159;-61
2022/06/25 09:48:48;;;;;;;5.55;1.87;;;26.60;54.20;;;;;;1938660;73;21086;-61
2022/06/25 09:51:29;;;;;;;5.45;1.75;;;26.50;54.50;;;;;;1938448;73;21051;-61
2022/06/25 09:54:02;;;;;;;3.10;1.65;;;26.50;54.20;;;;;;1932921;74;21050;-61
2022/06/25 09:56:33;;;;;;;2.00;1.57;;;26.60;53.40;;;;;;1938033;73;20999;-61
2022/06/25 09:59:03;;;;;;;1.62;1.50;;;26.70;52.90;;;;;;1937959;74;21073;-61
2022/06/25 10:01:33;;;;;;;4.30;1.40;;;26.80;51.40;;;;;;1937998;74;21039;-61
2022/06/25 10:04:04;;;;;;;2.85;1.52;;;26.70;51.30;;;;;;1938176;74;21093;-61
2022/06/25 10:06:36;;;;;;;8.58;2.62;;;26.60;51.40;;;;;;1937983;74;20983;-62
2022/06/25 10:09:06;;;;;;;2.50;1.87;;;26.40;51.00;;;;;;1937519;73;20988;-61
2022/06/25 10:11:37;;;;;;;1.85;1.40;;;26.40;51.70;;;;;;1937929;73;20996;-61
2022/06/25 10:14:06;;;;;;;6.87;1.70;;;26.30;52.50;;;;;;1938079;74;21030;-61
2022/06/25 10:16:36;;;;;;;1.75;1.55;;;26.30;52.70;;;;;;1937986;74;21015;-61
2022/06/25 10:19:05;;;;;;;1.50;1.40;;;26.30;52.70;;;;;;1938060;74;21031;-61
2022/06/25 10:21:35;;;;;;;2.20;1.70;;;26.30;52.80;;;;;;1937935;74;21015;-61
2022/06/25 10:24:06;;;;;;;3.20;1.55;;;26.40;52.80;;;;;;1938063;74;20995;-61
2022/06/25 10:26:37;;;;;;;2.25;1.92;;;26.40;52.80;;;;;;1938006;74;21015;-61
2022/06/25 10:29:26;;;;;;;4.10;1.70;;;26.50;53.00;;;;;;1938014;74;21085;-61
2022/06/25 10:32:14;;;;;;;2.55;1.60;;;26.50;53.50;;;;;;1937865;74;21011;-61
2022/06/25 10:35:05;;;;;;;5.37;1.80;;;26.50;54.50;;;;;;1937850;74;21085;-60
2022/06/25 10:37:49;;;;;;;2.27;1.72;;;26.40;55.00;;;;;;1936232;74;21410;-60
2022/06/25 10:40:19;;;;;;;4.37;2.05;;;26.40;55.40;;;;;;1937749;71;21098;-61
2022/06/25 10:43:01;;;;;;;3.92;2.10;;;26.40;56.00;;;;;;1937817;74;21069;-62
2022/06/25 10:45:36;;;;;;;3.75;2.02;;;26.40;56.20;;;;;;1937932;74;21105;-61
2022/06/25 10:48:06;;;;;;;2.85;1.82;;;26.60;56.40;;;;;;1936794;71;21008;-62
2022/06/25 10:50:37;;;;;;;3.02;2.45;;;26.60;56.70;;;;;;1937807;74;21079;-62
2022/06/25 10:53:12;;;;;;;2.30;1.90;;;26.70;56.50;;;;;;1955121;73;21046;-62
2022/06/25 10:55:50;;;;;;;2.87;1.62;;;26.60;55.90;;;;;;1961006;73;21034;-63
2022/06/25 10:58:22;;;;;;;2.50;2.02;;;26.60;56.30;;;;;;1960962;73;21054;-63
2022/06/25 11:00:58;;;;;;;9.70;1.77;;;26.60;56.80;;;;;;1960973;73;21425;-63
2022/06/25 11:03:32;;;;;;;2.72;1.80;;;26.70;56.50;;;;;;1960897;73;21038;-63
2022/06/25 11:06:19;;;;;;;4.67;2.00;;;26.80;56.40;;;;;;1961018;73;21452;-62
2022/06/25 11:09:24;;;;;;;2.17;1.90;;;26.80;55.20;;;;;;1961011;73;21088;-62
2022/06/25 11:11:55;;;;;;;2.43;1.70;;;26.70;55.10;;;;;;1934904;74;21049;-62
2022/06/25 11:14:25;;;;;;;1.80;1.67;;;26.80;55.70;;;;;;1934732;74;21083;-62
2022/06/25 11:16:55;;;;;;;1.57;1.40;;;26.90;56.00;;;;;;1934661;74;21022;-62
2022/06/25 11:19:25;;;;;;;2.62;1.25;;;26.90;55.00;;;;;;1934763;74;21025;-62
2022/06/25 11:21:54;;;;;;;2.52;1.37;;;26.80;53.70;;;;;;1934621;74;21002;-62
2022/06/25 11:24:28;;;;;;;6.67;1.30;;;26.80;54.00;;;;;;1934629;74;21002;-62
2022/06/25 11:29:54;;;;;;;1.85;1.20;;;26.70;54.50;;;;;;1934639;74;21034;-63
2022/06/25 11:32:26;;;;;;;2.25;1.42;;;26.60;55.20;;;;;;1934818;74;21127;-61
2022/06/25 11:34:58;;;;;;;3.35;2.20;;;26.50;56.10;;;;;;1934817;74;21563;-61
2022/06/25 11:37:29;;;;;;;1.45;1.10;;;26.40;56.50;;;;;;1934811;74;21025;-61
2022/06/25 11:39:58;;;;;;;1.80;1.50;;;26.30;55.80;;;;;;1934762;74;21460;-62
2022/06/25 11:42:27;;;;;;;8.38;6.50;;;26.10;56.20;;;;;;1934778;74;21025;-61
2022/06/25 11:44:57;;;;;;;2.42;1.50;;;26.00;56.80;;;;;;1934829;74;21001;-62
2022/06/25 11:47:28;;;;;;;2.05;1.52;;;26.00;57.20;;;;;;1934681;74;21087;-61
2022/06/25 11:49:57;;;;;;;2.67;1.40;;;26.00;57.50;;;;;;1934687;74;21033;-62
2022/06/25 11:52:27;;;;;;;2.27;1.42;;;26.00;57.30;;;;;;1934741;74;21460;-61
2022/06/25 11:54:57;;;;;;;1.22;1.10;;;26.00;57.60;;;;;;1934635;74;21042;-61
2022/06/25 11:57:28;;;;;;;5.50;1.50;;;26.10;58.00;;;;;;1934600;74;21026;-61
2022/06/25 11:59:57;;;;;;;4.55;2.50;;;26.20;57.70;;;;;;1934672;74;21050;-61
2022/06/25 12:02:27;;;;;;;1.70;1.55;;;26.40;57.70;;;;;;1934547;74;21116;-61
2022/06/25 12:05:02;;;;;;;1.47;1.37;;;26.50;56.70;;;;;;1934550;74;21095;-62
2022/06/25 12:07:34;;;;;;;4.08;1.20;;;26.50;55.90;;;;;;1934553;74;21085;-62
2022/06/25 12:10:06;;;;;;;1.37;1.20;;;26.60;56.20;;;;;;1933096;74;21085;-62
2022/06/25 12:12:37;;;;;;;4.28;1.75;;;26.70;56.00;;;;;;1922152;75;21086;-63
2022/06/25 12:15:08;;;;;;;4.17;1.95;;;26.80;55.90;;;;;;1922159;74;21022;-62
2022/06/25 12:17:38;;;;;;;1.42;1.30;;;26.90;55.90;;;;;;1921459;75;21562;-62
2022/06/25 12:20:09;;;;;;;2.87;1.75;;;27.00;55.30;;;;;;1922128;75;21002;-62
2022/06/25 12:22:41;;;;;;;2.22;1.60;;;27.10;56.10;;;;;;1922121;75;21092;-62
2022/06/25 12:25:12;;;;;;;4.50;1.77;;;27.30;55.50;;;;;;1919840;75;21488;-62
2022/06/25 12:27:48;;;;;;;2.55;1.37;;;27.30;55.40;;;;;;1893806;73;21114;-62
2022/06/25 12:30:29;;;;;;;2.17;1.30;;;27.30;55.60;;;;;;1884952;74;21166;-62
2022/06/25 12:33:06;;;;;;;2.22;1.77;;;27.30;55.30;;;;;;1885627;76;21050;-62
2022/06/25 12:35:36;;;;;;;2.92;1.80;;;27.30;55.40;;;;;;1885774;76;21103;-62
2022/06/25 12:38:08;;;;;;;1.90;1.70;;;27.30;55.80;;;;;;1885688;74;21472;-62
2022/06/25 12:40:41;;;;;;;1.90;1.70;;;27.30;55.80;;;;;;1885673;76;21135;-63
2022/06/25 12:43:12;;;;;;;3.52;1.65;;;27.30;55.90;;;;;;1885779;75;21025;-63
2022/06/25 12:45:43;;;;;;;3.20;1.60;;;27.20;55.90;;;;;;1885645;76;21116;-62
2022/06/25 12:48:13;;;;;;;2.52;1.72;;;27.20;56.30;;;;;;1885605;76;21087;-62
2022/06/25 12:50:46;;;;;;;3.72;1.52;;;27.10;56.80;;;;;;1885590;76;21029;-62
2022/06/25 12:53:15;;;;;;;2.00;1.45;;;27.20;57.10;;;;;;1885446;76;21009;-62
2022/06/25 12:55:49;;;;;;;2.08;1.75;;;27.30;56.80;;;;;;1885607;76;21092;-62
2022/06/25 12:58:21;;;;;;;1.90;1.80;;;27.20;56.00;;;;;;1885756;76;21022;-63
2022/06/25 13:00:50;;;;;;;1.65;1.30;;;27.10;55.80;;;;;;1885700;76;21065;-62
2022/06/25 13:03:20;;;;;;;5.75;1.55;;;27.00;56.20;;;;;;1885504;76;21120;-63
2022/06/25 13:05:49;;;;;;;3.15;1.80;;;26.90;56.50;;;;;;1885707;76;21005;-63
2022/06/25 13:08:18;;;;;;;1.82;1.50;;;26.80;56.80;;;;;;1885655;76;21022;-62
2022/06/25 13:10:48;;;;;;;2.10;1.90;;;26.80;56.90;;;;;;1885654;76;21097;-62
2022/06/25 13:13:17;;;;;;;1.82;1.72;;;26.70;56.60;;;;;;1885711;75;21101;-63
2022/06/25 13:15:47;;;;;;;3.10;1.70;;;26.60;57.20;;;;;;1885623;76;21022;-63
2022/06/25 13:18:17;;;;;;;4.08;2.00;;;26.50;57.80;;;;;;1885607;76;21033;-63